sensor_id;sensor_type;location;lat;lon;timestamp;pressure;altitude;pressure_sealevel;temperature;humidity
15405;BME280;7801;48.124;11.590;2023-04-03T00:00:40;95946.00;;;3.95;91.03
15405;BME280;7801;48.124;11.590;2023-04-03T00:03:06;95944.94;;;3.96;91.60
15405;BME280;7801;48.124;11.590;2023-04-03T00:05:32;95943.28;;;4.06;92.17
15405;BME280;7801;48.124;11.590;2023-04-03T00:07:57;95942.12;;;4.14;92.21
15405;BME280;7801;48.124;11.590;2023-04-03T00:10:22;95945.56;;;4.31;91.98
15405;BME280;7801;48.124;11.590;2023-04-03T00:12:48;95945.38;;;4.38;91.41
15405;BME280;7801;48.124;11.590;2023-04-03T00:15:13;95937.25;;;4.23;90.76
15405;BME280;7801;48.124;11.590;2023-04-03T00:17:38;95942.12;;;4.14;91.17
15405;BME280;7801;48.124;11.590;2023-04-03T00:20:05;95945.38;;;4.21;91.46
15405;BME280;7801;48.124;11.590;2023-04-03T00:22:30;95945.22;;;4.11;91.48
15405;BME280;7801;48.124;11.590;2023-04-03T00:24:56;95944.41;;;4.10;90.52
15405;BME280;7801;48.124;11.590;2023-04-03T00:27:21;95947.75;;;4.06;91.07
15405;BME280;7801;48.124;11.590;2023-04-03T00:29:47;95953.87;;;3.95;91.50
15405;BME280;7801;48.124;11.590;2023-04-03T00:32:12;95948.63;;;3.95;91.86
15405;BME280;7801;48.124;11.590;2023-04-03T00:34:38;95952.00;;;3.95;91.79
15405;BME280;7801;48.124;11.590;2023-04-03T00:37:03;95944.19;;;4.12;90.70
15405;BME280;7801;48.124;11.590;2023-04-03T00:39:28;95944.22;;;4.00;90.72
15405;BME280;7801;48.124;11.590;2023-04-03T00:41:54;95952.66;;;4.02;90.71
15405;BME280;7801;48.124;11.590;2023-04-03T00:47:11;95947.91;;;3.71;91.93
15405;BME280;7801;48.124;11.590;2023-04-03T00:49:39;95948.22;;;3.74;91.58
15405;BME280;7801;48.124;11.590;2023-04-03T00:52:10;95948.00;;;3.76;91.45
15405;BME280;7801;48.124;11.590;2023-04-03T00:54:38;95945.28;;;3.71;92.09
15405;BME280;7801;48.124;11.590;2023-04-03T00:57:05;95945.28;;;3.71;92.81
15405;BME280;7801;48.124;11.590;2023-04-03T00:59:33;95945.87;;;3.61;92.61
15405;BME280;7801;48.124;11.590;2023-04-03T01:02:00;95945.22;;;3.83;92.01
15405;BME280;7801;48.124;11.590;2023-04-03T01:04:39;95941.13;;;3.87;91.05
15405;BME280;7801;48.124;11.590;2023-04-03T01:07:12;95941.66;;;3.72;91.05
15405;BME280;7801;48.124;11.590;2023-04-03T01:09:39;95951.63;;;3.75;91.68
15405;BME280;7801;48.124;11.590;2023-04-03T01:14:41;95944.22;;;4.00;91.82
15405;BME280;7801;48.124;11.590;2023-04-03T01:25:28;95948.78;;;4.05;89.69
15405;BME280;7801;48.124;11.590;2023-04-03T01:27:54;95951.88;;;4.19;90.01
15405;BME280;7801;48.124;11.590;2023-04-03T01:30:21;95956.72;;;3.93;90.00
15405;BME280;7801;48.124;11.590;2023-04-03T01:32:48;95952.31;;;3.82;90.44
15405;BME280;7801;48.124;11.590;2023-04-03T01:35:14;95950.38;;;3.77;90.85
15405;BME280;7801;48.124;11.590;2023-04-03T01:37:39;95954.13;;;3.82;91.62
15405;BME280;7801;48.124;11.590;2023-04-03T01:40:05;95955.59;;;3.89;91.65
15405;BME280;7801;48.124;11.590;2023-04-03T01:42:32;95962.09;;;4.15;90.92
15405;BME280;7801;48.124;11.590;2023-04-03T01:44:57;95961.97;;;3.93;90.06
15405;BME280;7801;48.124;11.590;2023-04-03T01:47:23;95963.00;;;3.92;90.29
15405;BME280;7801;48.124;11.590;2023-04-03T01:49:48;95953.22;;;3.88;90.74
15405;BME280;7801;48.124;11.590;2023-04-03T01:52:13;95958.00;;;3.91;90.61
15405;BME280;7801;48.124;11.590;2023-04-03T01:54:39;95959.66;;;3.68;91.58
15405;BME280;7801;48.124;11.590;2023-04-03T01:57:04;95958.34;;;3.83;92.09
15405;BME280;7801;48.124;11.590;2023-04-03T01:59:30;95951.38;;;3.88;92.30
15405;BME280;7801;48.124;11.590;2023-04-03T02:01:55;95951.75;;;3.80;92.09
15405;BME280;7801;48.124;11.590;2023-04-03T02:04:20;95948.91;;;3.98;91.63
15405;BME280;7801;48.124;11.590;2023-04-03T02:06:46;95956.19;;;4.08;91.49
15405;BME280;7801;48.124;11.590;2023-04-03T02:09:11;95950.50;;;3.99;90.54
15405;BME280;7801;48.124;11.590;2023-04-03T02:11:37;95951.88;;;4.19;90.09
15405;BME280;7801;48.124;11.590;2023-04-03T02:14:02;95951.03;;;4.30;88.97
15405;BME280;7801;48.124;11.590;2023-04-03T02:16:28;95947.94;;;4.33;88.48
15405;BME280;7801;48.124;11.590;2023-04-03T02:18:54;95953.00;;;4.23;89.11
15405;BME280;7801;48.124;11.590;2023-04-03T02:21:19;95960.50;;;4.14;89.74
15405;BME280;7801;48.124;11.590;2023-04-03T02:23:44;95947.16;;;4.32;89.41
15405;BME280;7801;48.124;11.590;2023-04-03T02:26:12;95945.38;;;4.21;89.37
15405;BME280;7801;48.124;11.590;2023-04-03T02:28:39;95951.88;;;4.19;90.18
15405;BME280;7801;48.124;11.590;2023-04-03T02:31:05;95945.13;;;4.23;89.50
15405;BME280;7801;48.124;11.590;2023-04-03T02:33:31;95948.00;;;4.21;89.73
15405;BME280;7801;48.124;11.590;2023-04-03T02:35:57;95944.41;;;4.10;89.14
15405;BME280;7801;48.124;11.590;2023-04-03T02:38:24;95935.28;;;4.13;88.75
15405;BME280;7801;48.124;11.590;2023-04-03T02:40:49;95949.47;;;4.00;89.40
15405;BME280;7801;48.124;11.590;2023-04-03T02:43:16;95944.56;;;4.04;89.48
15405;BME280;7801;48.124;11.590;2023-04-03T02:45:41;95946.47;;;4.08;89.46
15405;BME280;7801;48.124;11.590;2023-04-03T02:48:06;95943.53;;;4.22;88.63
15405;BME280;7801;48.124;11.590;2023-04-03T02:50:32;95944.66;;;4.26;87.30
15405;BME280;7801;48.124;11.590;2023-04-03T02:52:57;95954.84;;;4.39;86.88
15405;BME280;7801;48.124;11.590;2023-04-03T02:55:22;95947.47;;;4.36;86.86
15405;BME280;7801;48.124;11.590;2023-04-03T02:57:48;95941.72;;;4.22;86.39
15405;BME280;7801;48.124;11.590;2023-04-03T03:00:13;95948.56;;;4.23;87.11
15405;BME280;7801;48.124;11.590;2023-04-03T03:02:40;95943.41;;;4.28;86.89
15405;BME280;7801;48.124;11.590;2023-04-03T03:05:05;95952.22;;;4.39;86.55
15405;BME280;7801;48.124;11.590;2023-04-03T03:07:31;95944.59;;;4.37;86.99
15405;BME280;7801;48.124;11.590;2023-04-03T03:09:57;95947.47;;;4.53;86.53
15405;BME280;7801;48.124;11.590;2023-04-03T03:12:22;95953.78;;;4.06;84.98
15405;BME280;7801;48.124;11.590;2023-04-03T03:14:49;95951.72;;;4.08;85.60
15405;BME280;7801;48.124;11.590;2023-04-03T03:17:15;95951.31;;;4.17;84.67
15405;BME280;7801;48.124;11.590;2023-04-03T03:19:40;95959.50;;;4.03;85.19
15405;BME280;7801;48.124;11.590;2023-04-03T03:22:06;95953.00;;;4.06;84.77
15405;BME280;7801;48.124;11.590;2023-04-03T03:24:31;95947.25;;;3.92;84.89
15405;BME280;7801;48.124;11.590;2023-04-03T03:26:56;95952.56;;;3.97;85.40
15405;BME280;7801;48.124;11.590;2023-04-03T03:29:22;95953.13;;;3.99;85.92
15405;BME280;7801;48.124;11.590;2023-04-03T03:31:47;95947.56;;;3.96;85.66
15405;BME280;7801;48.124;11.590;2023-04-03T03:34:12;95954.91;;;3.94;84.85
15405;BME280;7801;48.124;11.590;2023-04-03T03:36:38;95952.31;;;3.82;84.80
15405;BME280;7801;48.124;11.590;2023-04-03T03:39:04;95949.44;;;3.84;85.95
15405;BME280;7801;48.124;11.590;2023-04-03T03:41:29;95939.63;;;4.07;85.99
15405;BME280;7801;48.124;11.590;2023-04-03T03:43:55;95946.13;;;3.88;86.90
15405;BME280;7801;48.124;11.590;2023-04-03T03:46:20;95954.25;;;4.03;85.39
15405;BME280;7801;48.124;11.590;2023-04-03T03:48:45;95959.72;;;4.13;85.33
15405;BME280;7801;48.124;11.590;2023-04-03T03:51:11;95955.75;;;3.99;84.56
15405;BME280;7801;48.124;11.590;2023-04-03T03:53:36;95956.63;;;3.88;84.11
15405;BME280;7801;48.124;11.590;2023-04-03T03:56:01;95954.69;;;3.84;84.82
15405;BME280;7801;48.124;11.590;2023-04-03T03:58:27;95955.19;;;3.97;85.36
15405;BME280;7801;48.124;11.590;2023-04-03T04:00:52;95954.97;;;3.99;85.51
15405;BME280;7801;48.124;11.590;2023-04-03T04:03:18;95950.59;;;4.04;84.35
15405;BME280;7801;48.124;11.590;2023-04-03T04:05:43;95952.78;;;3.79;84.92
15405;BME280;7801;48.124;11.590;2023-04-03T04:08:09;95957.94;;;3.74;85.87
15405;BME280;7801;48.124;11.590;2023-04-03T04:10:35;95951.75;;;3.80;85.61
15405;BME280;7801;48.124;11.590;2023-04-03T04:13:02;95949.78;;;3.87;85.16
15405;BME280;7801;48.124;11.590;2023-04-03T04:15:27;95945.47;;;3.81;85.49
15405;BME280;7801;48.124;11.590;2023-04-03T04:17:53;95952.28;;;3.94;85.37
15405;BME280;7801;48.124;11.590;2023-04-03T04:20:18;95957.03;;;3.97;84.30
15405;BME280;7801;48.124;11.590;2023-04-03T04:22:44;95945.78;;;3.85;84.69
15405;BME280;7801;48.124;11.590;2023-04-03T04:25:09;95950.75;;;3.98;84.98
15405;BME280;7801;48.124;11.590;2023-04-03T04:27:35;95953.06;;;3.94;83.93
15405;BME280;7801;48.124;11.590;2023-04-03T04:30:02;95956.78;;;3.98;83.91
15405;BME280;7801;48.124;11.590;2023-04-03T04:32:27;95962.78;;;3.94;83.87
15405;BME280;7801;48.124;11.590;2023-04-03T04:34:53;95965.53;;;3.87;83.78
15405;BME280;7801;48.124;11.590;2023-04-03T04:37:18;95959.41;;;3.98;84.30
15405;BME280;7801;48.124;11.590;2023-04-03T04:39:43;95973.31;;;3.82;84.62
15405;BME280;7801;48.124;11.590;2023-04-03T04:42:09;95969.03;;;3.64;85.64
15405;BME280;7801;48.124;11.590;2023-04-03T04:44:40;95961.25;;;3.69;85.54
15405;BME280;7801;48.124;11.590;2023-04-03T04:47:06;95962.94;;;3.75;85.63
15405;BME280;7801;48.124;11.590;2023-04-03T04:49:31;95964.41;;;3.83;85.66
15405;BME280;7801;48.124;11.590;2023-04-03T04:51:57;95963.84;;;3.81;86.17
15405;BME280;7801;48.124;11.590;2023-04-03T04:54:22;95963.31;;;3.96;85.56
15405;BME280;7801;48.124;11.590;2023-04-03T04:56:47;95958.06;;;3.96;85.18
15405;BME280;7801;48.124;11.590;2023-04-03T04:59:13;95958.97;;;4.18;85.36
15405;BME280;7801;48.124;11.590;2023-04-03T05:01:38;95955.25;;;4.31;84.52
15405;BME280;7801;48.124;11.590;2023-04-03T05:04:04;95967.56;;;4.13;83.57
15405;BME280;7801;48.124;11.590;2023-04-03T05:06:29;95974.56;;;4.08;82.96
15405;BME280;7801;48.124;11.590;2023-04-03T05:08:56;95972.41;;;4.05;83.31
15405;BME280;7801;48.124;11.590;2023-04-03T05:11:22;95969.19;;;3.86;83.65
15405;BME280;7801;48.124;11.590;2023-04-03T05:13:47;95972.84;;;3.85;84.17
15405;BME280;7801;48.124;11.590;2023-04-03T05:16:12;95972.06;;;4.01;84.05
15405;BME280;7801;48.124;11.590;2023-04-03T05:18:38;95971.59;;;4.04;84.05
15405;BME280;7801;48.124;11.590;2023-04-03T05:21:03;95978.56;;;4.10;84.13
15405;BME280;7801;48.124;11.590;2023-04-03T05:23:29;95977.16;;;3.91;84.61
15405;BME280;7801;48.124;11.590;2023-04-03T05:25:55;95977.78;;;3.98;84.82
15405;BME280;7801;48.124;11.590;2023-04-03T05:28:20;95976.84;;;4.04;84.14
15405;BME280;7801;48.124;11.590;2023-04-03T05:30:52;95970.00;;;4.03;83.93
15405;BME280;7801;48.124;11.590;2023-04-03T05:33:19;95985.84;;;4.08;84.39
15405;BME280;7801;48.124;11.590;2023-04-03T05:35:44;95979.72;;;4.03;84.64
15405;BME280;7801;48.124;11.590;2023-04-03T05:38:09;95987.50;;;3.98;83.62
15405;BME280;7801;48.124;11.590;2023-04-03T05:40:35;95989.41;;;4.02;82.96
15405;BME280;7801;48.124;11.590;2023-04-03T05:43:00;95987.09;;;3.89;84.47
15405;BME280;7801;48.124;11.590;2023-04-03T05:45:25;95978.25;;;3.95;83.98
15405;BME280;7801;48.124;11.590;2023-04-03T05:47:51;95987.09;;;3.89;83.36
15405;BME280;7801;48.124;11.590;2023-04-03T05:50:16;95992.13;;;3.79;84.09
15405;BME280;7801;48.124;11.590;2023-04-03T05:52:44;95991.84;;;3.64;85.24
15405;BME280;7801;48.124;11.590;2023-04-03T05:55:11;95987.03;;;3.72;84.91
15405;BME280;7801;48.124;11.590;2023-04-03T05:57:36;95992.91;;;3.91;84.25
15405;BME280;7801;48.124;11.590;2023-04-03T06:00:04;95982.47;;;3.96;83.28
15405;BME280;7801;48.124;11.590;2023-04-03T06:02:30;95984.06;;;3.97;82.97
15405;BME280;7801;48.124;11.590;2023-04-03T06:04:56;95992.66;;;3.93;83.15
15405;BME280;7801;48.124;11.590;2023-04-03T06:07:23;95991.31;;;3.90;83.71
15405;BME280;7801;48.124;11.590;2023-04-03T06:09:49;95993.53;;;3.98;84.14
15405;BME280;7801;48.124;11.590;2023-04-03T06:12:16;95985.63;;;4.10;83.58
15405;BME280;7801;48.124;11.590;2023-04-03T06:14:42;95996.75;;;4.17;82.98
15405;BME280;7801;48.124;11.590;2023-04-03T06:17:07;95992.25;;;4.12;82.91
15405;BME280;7801;48.124;11.590;2023-04-03T06:19:34;96003.56;;;4.01;82.52
15405;BME280;7801;48.124;11.590;2023-04-03T06:21:59;95998.16;;;3.91;82.97
15405;BME280;7801;48.124;11.590;2023-04-03T06:24:25;96009.22;;;3.93;83.05
15405;BME280;7801;48.124;11.590;2023-04-03T06:26:51;96000.28;;;3.66;83.62
15405;BME280;7801;48.124;11.590;2023-04-03T06:29:18;96001.31;;;3.65;84.01
15405;BME280;7801;48.124;11.590;2023-04-03T06:31:44;96005.06;;;3.69;84.49
15405;BME280;7801;48.124;11.590;2023-04-03T06:34:10;96007.69;;;3.69;84.61
15405;BME280;7801;48.124;11.590;2023-04-03T06:36:37;96006.84;;;3.80;83.86
15405;BME280;7801;48.124;11.590;2023-04-03T06:39:03;96003.47;;;3.96;83.73
15405;BME280;7801;48.124;11.590;2023-04-03T06:41:28;96010.25;;;3.92;84.02
15405;BME280;7801;48.124;11.590;2023-04-03T06:43:54;96001.41;;;3.98;83.40
15405;BME280;7801;48.124;11.590;2023-04-03T06:46:22;96004.03;;;3.98;83.27
15405;BME280;7801;48.124;11.590;2023-04-03T06:48:48;96006.75;;;4.03;82.74
15405;BME280;7801;48.124;11.590;2023-04-03T06:51:17;96015.53;;;4.09;82.08
15405;BME280;7801;48.124;11.590;2023-04-03T06:53:43;96008.69;;;4.08;82.25
15405;BME280;7801;48.124;11.590;2023-04-03T06:56:09;96007.75;;;4.14;82.11
15405;BME280;7801;48.124;11.590;2023-04-03T06:58:34;96004.69;;;4.05;81.49
15405;BME280;7801;48.124;11.590;2023-04-03T07:01:00;96006.97;;;4.13;82.17
15405;BME280;7801;48.124;11.590;2023-04-03T07:03:25;96013.50;;;3.99;80.94
15405;BME280;7801;48.124;11.590;2023-04-03T07:05:50;96015.56;;;3.97;81.68
15405;BME280;7801;48.124;11.590;2023-04-03T07:08:16;96023.28;;;4.16;81.81
15405;BME280;7801;48.124;11.590;2023-04-03T07:10:41;96024.25;;;4.26;81.51
15405;BME280;7801;48.124;11.590;2023-04-03T07:13:06;96027.75;;;4.32;80.93
15405;BME280;7801;48.124;11.590;2023-04-03T07:15:32;96025.28;;;4.42;81.25
15405;BME280;7801;48.124;11.590;2023-04-03T07:17:58;96025.84;;;4.44;81.15
15405;BME280;7801;48.124;11.590;2023-04-03T07:20:23;96022.37;;;4.55;81.04
15405;BME280;7801;48.124;11.590;2023-04-03T07:22:49;96031.53;;;4.69;80.13
15405;BME280;7801;48.124;11.590;2023-04-03T07:25:14;96032.47;;;4.63;79.37
15405;BME280;7801;48.124;11.590;2023-04-03T07:27:40;96030.41;;;4.65;79.02
15405;BME280;7801;48.124;11.590;2023-04-03T07:30:05;96036.31;;;4.72;79.42
15405;BME280;7801;48.124;11.590;2023-04-03T07:32:31;96035.09;;;4.63;79.71
15405;BME280;7801;48.124;11.590;2023-04-03T07:34:56;96038.84;;;4.51;79.30
15405;BME280;7801;48.124;11.590;2023-04-03T07:37:22;96039.97;;;4.55;79.44
15405;BME280;7801;48.124;11.590;2023-04-03T07:39:47;96046.50;;;4.52;78.76
15405;BME280;7801;48.124;11.590;2023-04-03T07:42:13;96050.38;;;4.33;79.46
15405;BME280;7801;48.124;11.590;2023-04-03T07:44:39;96055.66;;;4.21;80.22
15405;BME280;7801;48.124;11.590;2023-04-03T07:47:04;96061.69;;;4.22;79.62
15405;BME280;7801;48.124;11.590;2023-04-03T07:49:29;96055.66;;;4.21;79.88
15405;BME280;7801;48.124;11.590;2023-04-03T07:51:55;96067.25;;;4.08;80.47
15405;BME280;7801;48.124;11.590;2023-04-03T07:54:20;96066.09;;;4.04;81.02
15405;BME280;7801;48.124;11.590;2023-04-03T07:56:45;96060.63;;;4.06;81.80
15405;BME280;7801;48.124;11.590;2023-04-03T07:59:11;96070.03;;;4.19;81.11
15405;BME280;7801;48.124;11.590;2023-04-03T08:01:37;96072.19;;;4.22;80.53
15405;BME280;7801;48.124;11.590;2023-04-03T08:04:02;96061.91;;;4.32;80.83
15405;BME280;7801;48.124;11.590;2023-04-03T08:06:27;96065.09;;;4.34;80.65
15405;BME280;7801;48.124;11.590;2023-04-03T08:08:55;96069.91;;;4.25;80.87
15405;BME280;7801;48.124;11.590;2023-04-03T08:11:21;96067.75;;;4.22;80.83
15405;BME280;7801;48.124;11.590;2023-04-03T08:13:47;96070.81;;;4.31;81.41
15405;BME280;7801;48.124;11.590;2023-04-03T08:16:17;96068.13;;;4.42;81.04
15405;BME280;7801;48.124;11.590;2023-04-03T08:18:43;96060.81;;;4.16;82.43
15405;BME280;7801;48.124;11.590;2023-04-03T08:21:09;96065.56;;;4.31;82.55
15405;BME280;7801;48.124;11.590;2023-04-03T08:23:35;96070.34;;;4.34;81.70
15405;BME280;7801;48.124;11.590;2023-04-03T08:26:17;96070.13;;;4.35;81.90
15405;BME280;7801;48.124;11.590;2023-04-03T08:28:43;96061.44;;;4.35;81.10
15405;BME280;7801;48.124;11.590;2023-04-03T08:31:11;96063.34;;;4.39;81.28
15405;BME280;7801;48.124;11.590;2023-04-03T08:33:39;96067.34;;;4.59;80.86
15405;BME280;7801;48.124;11.590;2023-04-03T08:36:06;96062.25;;;4.52;80.30
15405;BME280;7801;48.124;11.590;2023-04-03T08:38:33;96064.81;;;4.80;79.54
15405;BME280;7801;48.124;11.590;2023-04-03T08:41:14;96070.41;;;4.84;79.04
15405;BME280;7801;48.124;11.590;2023-04-03T08:46:18;96066.75;;;5.02;77.90
15405;BME280;7801;48.124;11.590;2023-04-03T08:48:47;96070.06;;;4.80;77.42
15405;BME280;7801;48.124;11.590;2023-04-03T08:51:15;96080.09;;;4.67;78.17
15405;BME280;7801;48.124;11.590;2023-04-03T08:53:50;96079.22;;;4.61;78.34
15405;BME280;7801;48.124;11.590;2023-04-03T08:56:18;96078.28;;;4.67;78.10
15405;BME280;7801;48.124;11.590;2023-04-03T08:58:59;96081.31;;;4.76;78.59
15405;BME280;7801;48.124;11.590;2023-04-03T09:01:35;96079.44;;;4.60;78.32
15405;BME280;7801;48.124;11.590;2023-04-03T09:04:05;96075.50;;;4.57;78.26
15405;BME280;7801;48.124;11.590;2023-04-03T09:06:36;96080.34;;;4.37;79.32
15405;BME280;7801;48.124;11.590;2023-04-03T09:14:49;96087.75;;;4.68;77.88
15405;BME280;7801;48.124;11.590;2023-04-03T09:17:38;96084.09;;;4.86;77.39
15405;BME280;7801;48.124;11.590;2023-04-03T09:23:01;96077.03;;;5.03;76.45
15405;BME280;7801;48.124;11.590;2023-04-03T09:25:36;96078.06;;;5.02;76.09
15405;BME280;7801;48.124;11.590;2023-04-03T09:28:03;96078.78;;;4.98;75.58
15405;BME280;7801;48.124;11.590;2023-04-03T09:30:29;96078.22;;;4.96;76.26
15405;BME280;7801;48.124;11.590;2023-04-03T09:32:56;96081.56;;;5.25;75.30
15405;BME280;7801;48.124;11.590;2023-04-03T09:40:43;96074.22;;;5.27;75.30
15405;BME280;7801;48.124;11.590;2023-04-03T09:43:29;96079.16;;;5.23;75.29
15405;BME280;7801;48.124;11.590;2023-04-03T09:45:56;96079.50;;;5.10;74.72
15405;BME280;7801;48.124;11.590;2023-04-03T09:48:50;96080.75;;;5.24;74.57
15405;BME280;7801;48.124;11.590;2023-04-03T09:51:15;96079.31;;;5.33;75.04
15405;BME280;7801;48.124;11.590;2023-04-03T09:53:43;96083.34;;;5.19;74.75
15405;BME280;7801;48.124;11.590;2023-04-03T09:56:18;96074.53;;;5.30;75.54
15405;BME280;7801;48.124;11.590;2023-04-03T09:58:49;96064.34;;;5.34;75.22
15405;BME280;7801;48.124;11.590;2023-04-03T10:01:28;96072.47;;;5.32;73.92
15405;BME280;7801;48.124;11.590;2023-04-03T10:04:12;96077.56;;;5.22;72.48
15405;BME280;7801;48.124;11.590;2023-04-03T10:06:43;96077.00;;;5.20;74.07
15405;BME280;7801;48.124;11.590;2023-04-03T10:14:32;96073.81;;;5.35;71.79
15405;BME280;7801;48.124;11.590;2023-04-03T10:17:48;96070.72;;;5.38;72.17
15405;BME280;7801;48.124;11.590;2023-04-03T10:20:00;96067.28;;;5.37;72.74
15405;BME280;7801;48.124;11.590;2023-04-03T10:22:33;96073.16;;;5.44;73.56
15405;BME280;7801;48.124;11.590;2023-04-03T10:25:30;96077.16;;;5.30;74.37
15405;BME280;7801;48.124;11.590;2023-04-03T10:28:26;96074.13;;;5.22;74.80
15405;BME280;7801;48.124;11.590;2023-04-03T10:33:39;96073.13;;;4.72;78.02
15405;BME280;7801;48.124;11.590;2023-04-03T10:36:48;96074.25;;;4.76;79.48
15405;BME280;7801;48.124;11.590;2023-04-03T10:47:22;96075.66;;;4.67;78.14
15405;BME280;7801;48.124;11.590;2023-04-03T10:50:07;96073.59;;;4.69;78.78
15405;BME280;7801;48.124;11.590;2023-04-03T10:58:00;96093.97;;;4.34;83.03
15405;BME280;7801;48.124;11.590;2023-04-03T11:00:45;96092.00;;;4.12;85.24
15405;BME280;7801;48.124;11.590;2023-04-03T11:03:27;96091.22;;;4.00;85.59
15405;BME280;7801;48.124;11.590;2023-04-03T11:05:55;96092.00;;;4.12;86.03
15405;BME280;7801;48.124;11.590;2023-04-03T11:11:29;96094.97;;;4.04;85.53
15405;BME280;7801;48.124;11.590;2023-04-03T11:14:03;96081.41;;;4.07;83.75
15405;BME280;7801;48.124;11.590;2023-04-03T11:16:35;96083.91;;;4.14;82.42
15405;BME280;7801;48.124;11.590;2023-04-03T11:19:07;96076.00;;;4.14;81.78
15405;BME280;7801;48.124;11.590;2023-04-03T11:21:39;96070.34;;;4.34;82.22
15405;BME280;7801;48.124;11.590;2023-04-03T11:24:17;96073.38;;;4.42;80.61
15405;BME280;7801;48.124;11.590;2023-04-03T11:26:46;96069.19;;;4.58;80.17
15405;BME280;7801;48.124;11.590;2023-04-03T11:29:19;96066.88;;;4.78;80.14
15405;BME280;7801;48.124;11.590;2023-04-03T11:32:08;96063.09;;;4.86;77.94
15405;BME280;7801;48.124;11.590;2023-04-03T11:34:42;96065.94;;;4.84;75.46
15405;BME280;7801;48.124;11.590;2023-04-03T11:37:34;96062.59;;;4.89;75.07
15405;BME280;7801;48.124;11.590;2023-04-03T11:40:07;96068.09;;;4.88;75.24
15405;BME280;7801;48.124;11.590;2023-04-03T11:42:40;96061.00;;;4.88;73.79
15405;BME280;7801;48.124;11.590;2023-04-03T11:47:54;96065.09;;;4.96;70.65
15405;BME280;7801;48.124;11.590;2023-04-03T11:53:27;96056.88;;;4.75;70.91
15405;BME280;7801;48.124;11.590;2023-04-03T11:55:58;96055.53;;;4.73;71.66
15405;BME280;7801;48.124;11.590;2023-04-03T11:58:34;96054.50;;;4.91;72.81
15405;BME280;7801;48.124;11.590;2023-04-03T12:16:20;96039.47;;;5.25;65.27
15405;BME280;7801;48.124;11.590;2023-04-03T12:21:17;96032.19;;;5.48;63.33
15405;BME280;7801;48.124;11.590;2023-04-03T12:26:31;96032.88;;;5.61;63.06
15405;BME280;7801;48.124;11.590;2023-04-03T12:28:57;96026.03;;;5.60;62.65
15405;BME280;7801;48.124;11.590;2023-04-03T12:31:25;96030.25;;;5.61;62.26
15405;BME280;7801;48.124;11.590;2023-04-03T12:34:21;96027.97;;;5.69;61.86
15405;BME280;7801;48.124;11.590;2023-04-03T12:37:15;96033.97;;;5.65;62.32
15405;BME280;7801;48.124;11.590;2023-04-03T12:45:25;96028.13;;;6.01;60.11
15405;BME280;7801;48.124;11.590;2023-04-03T12:47:55;96015.97;;;6.22;60.88
15405;BME280;7801;48.124;11.590;2023-04-03T12:55:21;96020.38;;;6.43;58.71
15405;BME280;7801;48.124;11.590;2023-04-03T12:57:47;96000.19;;;6.54;57.60
15405;BME280;7801;48.124;11.590;2023-04-03T13:02:48;96010.66;;;6.44;55.53
15405;BME280;7801;48.124;11.590;2023-04-03T13:05:16;96007.06;;;6.28;55.53
15405;BME280;7801;48.124;11.590;2023-04-03T13:07:42;96001.59;;;6.35;55.47
15405;BME280;7801;48.124;11.590;2023-04-03T13:12:35;96004.56;;;6.16;56.46
15405;BME280;7801;48.124;11.590;2023-04-03T13:15:12;96003.62;;;6.28;56.64
15405;BME280;7801;48.124;11.590;2023-04-03T13:17:39;95999.19;;;6.33;57.50
15405;BME280;7801;48.124;11.590;2023-04-03T13:20:21;95989.63;;;6.54;56.11
15405;BME280;7801;48.124;11.590;2023-04-03T13:23:02;95999.00;;;6.40;52.64
15405;BME280;7801;48.124;11.590;2023-04-03T13:25:33;95997.91;;;6.36;52.43
15405;BME280;7801;48.124;11.590;2023-04-03T13:28:01;95992.63;;;6.36;51.88
15405;BME280;7801;48.124;11.590;2023-04-03T13:30:32;95995.22;;;6.58;51.78
15405;BME280;7801;48.124;11.590;2023-04-03T13:33:01;95987.41;;;6.73;53.61
15405;BME280;7801;48.124;11.590;2023-04-03T13:35:35;95986.75;;;6.93;53.83
15405;BME280;7801;48.124;11.590;2023-04-03T13:38:05;95992.03;;;6.93;52.93
15405;BME280;7801;48.124;11.590;2023-04-03T13:40:31;96002.44;;;6.72;52.06
15405;BME280;7801;48.124;11.590;2023-04-03T13:43:05;95996.00;;;6.58;53.09
15405;BME280;7801;48.124;11.590;2023-04-03T13:45:32;96001.78;;;6.55;52.41
15405;BME280;7801;48.124;11.590;2023-04-03T13:48:17;96002.81;;;6.54;52.59
15405;BME280;7801;48.124;11.590;2023-04-03T13:51:02;96002.38;;;6.35;53.17
15405;BME280;7801;48.124;11.590;2023-04-03T13:53:31;95992.50;;;6.20;53.88
15405;BME280;7801;48.124;11.590;2023-04-03T13:58:30;95998.03;;;6.19;53.07
15405;BME280;7801;48.124;11.590;2023-04-03T14:01:19;95993.97;;;6.11;53.73
15405;BME280;7801;48.124;11.590;2023-04-03T14:04:00;95993.53;;;6.19;52.50
15405;BME280;7801;48.124;11.590;2023-04-03T14:06:27;95987.19;;;6.15;52.79
15405;BME280;7801;48.124;11.590;2023-04-03T14:08:52;95993.00;;;6.17;52.58
15405;BME280;7801;48.124;11.590;2023-04-03T14:11:28;95986.69;;;6.18;52.66
15405;BME280;7801;48.124;11.590;2023-04-03T14:13:55;95984.97;;;6.34;52.50
15405;BME280;7801;48.124;11.590;2023-04-03T14:16:26;95990.00;;;6.36;52.29
15405;BME280;7801;48.124;11.590;2023-04-03T14:18:52;95982.00;;;6.26;50.92
15405;BME280;7801;48.124;11.590;2023-04-03T14:21:19;95982.00;;;6.26;51.23
15405;BME280;7801;48.124;11.590;2023-04-03T14:23:45;95971.50;;;6.31;50.72
15405;BME280;7801;48.124;11.590;2023-04-03T14:26:23;95969.06;;;6.24;51.55
15405;BME280;7801;48.124;11.590;2023-04-03T14:28:54;95966.84;;;6.38;49.96
15405;BME280;7801;48.124;11.590;2023-04-03T14:31:20;95971.00;;;6.34;49.60
15405;BME280;7801;48.124;11.590;2023-04-03T14:33:46;95966.25;;;6.31;49.43
15405;BME280;7801;48.124;11.590;2023-04-03T14:36:21;95968.31;;;6.29;50.55
15405;BME280;7801;48.124;11.590;2023-04-03T14:38:48;95966.38;;;6.46;49.50
15405;BME280;7801;48.124;11.590;2023-04-03T14:41:17;95960.53;;;6.39;48.40
15405;BME280;7801;48.124;11.590;2023-04-03T14:43:43;95968.47;;;6.44;48.33
15405;BME280;7801;48.124;11.590;2023-04-03T14:48:41;95958.94;;;6.38;48.58
15405;BME280;7801;48.124;11.590;2023-04-03T14:51:08;95962.41;;;6.43;49.12
15405;BME280;7801;48.124;11.590;2023-04-03T14:53:35;95954.06;;;6.57;49.22
15405;BME280;7801;48.124;11.590;2023-04-03T14:56:01;95968.56;;;6.54;49.12
15405;BME280;7801;48.124;11.590;2023-04-03T14:58:27;95960.41;;;6.55;48.96